createdAt,value
2019-04-13T00:00:48.577Z,14.53
2019-04-13T00:03:19.068Z,15.40
2019-04-13T00:06:11.580Z,14.73
2019-04-13T00:08:42.064Z,14.07
2019-04-13T00:11:30.165Z,13.50
2019-04-13T00:14:00.551Z,14.73
2019-04-13T00:16:31.016Z,16.27
2019-04-13T00:19:01.654Z,13.37
2019-04-13T00:21:32.122Z,17.63
2019-04-13T00:24:02.573Z,12.77
2019-04-13T00:26:33.087Z,15.30
2019-04-13T00:29:03.551Z,15.83
2019-04-13T00:31:33.940Z,15.40
2019-04-13T00:34:04.389Z,16.93
2019-04-13T00:36:34.885Z,17.40
2019-04-13T00:39:07.531Z,19.47
2019-04-13T00:41:38.368Z,13.10
2019-04-13T00:44:08.831Z,16.57
2019-04-13T00:46:39.233Z,16.60
2019-04-13T00:49:09.733Z,13.30
2019-04-13T00:51:40.201Z,14.10
2019-04-13T00:54:10.711Z,16.40
2019-04-13T00:56:41.142Z,19.07
2019-04-13T00:59:11.613Z,14.30
2019-04-13T01:01:42.020Z,19.63
2019-04-13T01:04:12.467Z,16.57
2019-04-13T01:06:42.937Z,17.20
2019-04-13T01:09:13.684Z,14.10
2019-04-13T01:11:44.134Z,14.17
2019-04-13T01:14:14.785Z,14.97
2019-04-13T01:16:45.410Z,19.17
2019-04-13T01:19:15.888Z,20.13
2019-04-13T01:21:46.358Z,17.40
2019-04-13T01:24:17.218Z,16.50
2019-04-13T01:26:47.625Z,18.30
2019-04-13T01:29:18.427Z,16.83
2019-04-13T01:31:48.842Z,14.77
2019-04-13T01:34:19.448Z,15.70
2019-04-13T01:36:49.915Z,15.80
2019-04-13T01:39:20.439Z,14.00
2019-04-13T01:41:51.308Z,18.33
2019-04-13T01:44:21.768Z,17.87
2019-04-13T01:46:52.181Z,17.87
2019-04-13T01:49:22.619Z,16.97
2019-04-13T01:51:53.008Z,18.60
2019-04-13T01:54:23.639Z,19.17
2019-04-13T01:56:54.111Z,17.23
2019-04-13T01:59:24.596Z,19.83
2019-04-13T02:02:19.876Z,19.37
2019-04-13T02:05:18.022Z,19.90
2019-04-13T02:08:07.011Z,19.47
2019-04-13T02:10:42.531Z,11.90
2019-04-13T02:13:13.098Z,18.67
2019-04-13T02:15:43.566Z,18.57
2019-04-13T02:18:14.008Z,17.63
2019-04-13T02:20:44.490Z,16.60
2019-04-13T02:23:14.889Z,16.60
2019-04-13T02:25:45.356Z,21.13
2019-04-13T02:28:15.755Z,17.73
2019-04-13T02:30:46.248Z,18.93
2019-04-13T02:33:16.664Z,19.43
2019-04-13T02:35:47.117Z,17.33
2019-04-13T02:38:17.606Z,18.33
2019-04-13T02:40:47.996Z,15.70
2019-04-13T02:43:18.493Z,15.70
2019-04-13T02:45:48.948Z,16.57
2019-04-13T02:48:19.439Z,16.30
2019-04-13T02:50:50.121Z,18.60
2019-04-13T02:53:21.052Z,16.23
2019-04-13T02:55:51.523Z,15.33
2019-04-13T02:58:22.152Z,19.13
2019-04-13T03:00:52.670Z,18.43
2019-04-13T03:03:23.372Z,20.03
2019-04-13T03:05:54.206Z,14.60
2019-04-13T03:08:25.101Z,21.43
2019-04-13T03:10:55.665Z,17.93
2019-04-13T03:13:26.430Z,20.63
2019-04-13T03:16:18.862Z,23.80
2019-04-13T03:19:12.835Z,16.97
2019-04-13T03:21:43.315Z,17.83
2019-04-13T03:24:13.757Z,16.70
2019-04-13T03:26:44.503Z,17.53
2019-04-13T03:29:14.981Z,18.00
2019-04-13T03:31:45.652Z,22.90
2019-04-13T03:34:16.112Z,18.23
2019-04-13T03:36:46.605Z,17.20
2019-04-13T03:39:17.113Z,23.60
2019-04-13T03:41:47.577Z,23.63
2019-04-13T03:44:18.051Z,22.53
2019-04-13T03:46:48.507Z,23.60
2019-04-13T03:49:18.984Z,25.30
2019-04-13T03:51:49.388Z,23.97
2019-04-13T03:54:19.891Z,23.60
2019-04-13T03:56:50.353Z,21.73
2019-04-13T03:59:20.818Z,22.37
2019-04-13T04:01:51.305Z,21.77
2019-04-13T04:04:21.818Z,21.33
2019-04-13T04:06:52.279Z,20.83
2019-04-13T04:09:22.786Z,22.70
2019-04-13T04:11:55.064Z,21.37
2019-04-13T04:14:25.524Z,23.67
2019-04-13T04:16:55.937Z,24.70
2019-04-13T04:19:26.496Z,22.47
2019-04-13T04:21:56.895Z,26.30
2019-04-13T04:24:27.365Z,24.50
2019-04-13T04:26:57.844Z,20.13
2019-04-13T04:29:28.726Z,21.63
2019-04-13T04:31:59.149Z,24.53
2019-04-13T04:34:29.753Z,24.50
2019-04-13T04:37:00.300Z,23.90
2019-04-13T04:39:30.960Z,23.50
2019-04-13T04:42:01.515Z,22.70
2019-04-13T04:44:32.105Z,21.20
2019-04-13T04:47:02.667Z,19.57
2019-04-13T04:49:33.278Z,23.00
2019-04-13T04:52:03.702Z,24.90
2019-04-13T04:54:34.418Z,25.37
2019-04-13T04:57:06.832Z,24.00
2019-04-13T04:59:37.257Z,26.40
2019-04-13T05:02:07.747Z,23.57
2019-04-13T05:04:38.205Z,24.37
2019-04-13T05:07:08.696Z,23.10
2019-04-13T05:09:39.116Z,25.53
2019-04-13T05:12:09.579Z,27.90
2019-04-13T05:14:40.003Z,23.07
2019-04-13T05:17:10.607Z,22.43
2019-04-13T05:19:40.981Z,21.63
2019-04-13T05:22:11.591Z,24.53
2019-04-13T05:24:42.120Z,23.30
2019-04-13T05:27:12.668Z,25.23
2019-04-13T05:29:43.081Z,20.17
2019-04-13T05:32:13.540Z,24.00
2019-04-13T05:34:44.021Z,23.70
2019-04-13T05:37:14.566Z,22.77
2019-04-13T05:39:44.994Z,24.70
2019-04-13T05:42:15.509Z,16.20
2019-04-13T05:44:46.023Z,23.87
2019-04-13T05:47:16.515Z,23.60
2019-04-13T05:49:46.937Z,23.93
2019-04-13T05:52:17.440Z,20.57
2019-04-13T05:54:47.835Z,28.77
2019-04-13T05:57:18.369Z,21.80
2019-04-13T05:59:48.873Z,21.47
2019-04-13T06:02:19.437Z,21.00
2019-04-13T06:04:49.935Z,20.53
2019-04-13T06:07:20.490Z,27.90
2019-04-13T06:09:54.504Z,22.30
2019-04-13T06:12:23.648Z,21.70
2019-04-13T06:14:54.161Z,25.43
2019-04-13T06:17:24.907Z,20.70
2019-04-13T06:19:55.417Z,22.90
2019-04-13T06:22:25.926Z,23.20
2019-04-13T06:24:56.414Z,22.30
2019-04-13T06:27:26.942Z,22.17
2019-04-13T06:30:00.951Z,26.43
2019-04-13T06:32:52.078Z,26.00
2019-04-13T06:35:26.792Z,22.57
2019-04-13T06:37:57.298Z,22.50
2019-04-13T06:40:27.741Z,23.47
2019-04-13T06:43:00.132Z,21.07
2019-04-13T06:45:30.582Z,18.60
2019-04-13T06:48:01.429Z,21.13
2019-04-13T06:50:31.921Z,19.40
2019-04-13T06:53:02.462Z,19.67
2019-04-13T06:55:33.069Z,20.23
2019-04-13T06:58:03.512Z,19.57
2019-04-13T07:00:33.983Z,18.47
2019-04-13T07:03:04.430Z,17.63
2019-04-13T07:05:35.030Z,19.77
2019-04-13T07:08:42.778Z,21.20
2019-04-13T07:11:27.897Z,19.03
2019-04-13T07:14:00.931Z,19.57
2019-04-13T07:16:37.715Z,18.17
2019-04-13T07:19:08.217Z,16.20
2019-04-13T07:21:38.968Z,20.40
2019-04-13T07:24:09.403Z,19.13
2019-04-13T07:26:40.441Z,17.50
2019-04-13T07:29:11.123Z,21.10
2019-04-13T07:31:41.591Z,23.23
2019-04-13T07:34:12.051Z,24.03
2019-04-13T07:36:43.230Z,20.23
2019-04-13T07:39:17.321Z,20.20
2019-04-13T07:41:46.044Z,18.80
2019-04-13T07:44:21.192Z,19.23
2019-04-13T07:47:17.555Z,26.77
2019-04-13T07:50:07.427Z,22.03
2019-04-13T07:52:38.036Z,21.43
2019-04-13T07:55:10.558Z,18.37
2019-04-13T07:57:41.004Z,27.27
2019-04-13T08:00:11.977Z,19.83
2019-04-13T08:02:42.591Z,20.20
2019-04-13T08:05:13.127Z,20.47
2019-04-13T08:07:49.643Z,16.17
2019-04-13T08:10:15.951Z,18.37
2019-04-13T08:12:46.693Z,19.37
2019-04-13T08:15:17.217Z,17.57
2019-04-13T08:17:53.486Z,16.37
2019-04-13T08:20:34.264Z,16.87
2019-04-13T08:23:07.487Z,17.17
2019-04-13T08:25:44.516Z,14.87
2019-04-13T08:28:16.345Z,16.80
2019-04-13T08:30:49.397Z,14.40
2019-04-13T08:33:19.375Z,17.70
2019-04-13T08:35:50.414Z,17.60
2019-04-13T08:38:21.602Z,16.90
2019-04-13T08:40:53.791Z,15.40
2019-04-13T08:43:24.402Z,16.23
2019-04-13T08:45:55.165Z,14.53
2019-04-13T08:48:27.301Z,14.30
2019-04-13T08:50:58.583Z,13.97
2019-04-13T08:53:29.083Z,15.10
2019-04-13T08:55:59.544Z,15.30
2019-04-13T08:58:30.490Z,14.27
2019-04-13T09:01:01.101Z,15.87
2019-04-13T09:03:31.877Z,14.47
2019-04-13T09:06:02.780Z,14.47
2019-04-13T09:08:33.506Z,14.57
2019-04-13T09:11:04.355Z,16.90
2019-04-13T09:13:36.090Z,19.70
2019-04-13T09:16:06.698Z,14.23
2019-04-13T09:19:06.014Z,16.27
2019-04-13T09:21:47.700Z,16.10
2019-04-13T09:24:19.281Z,17.47
2019-04-13T09:26:48.279Z,15.80
2019-04-13T09:29:18.761Z,19.30
2019-04-13T09:31:50.122Z,13.17
2019-04-13T09:34:31.675Z,14.20
2019-04-13T09:36:53.115Z,15.13
2019-04-13T09:39:23.653Z,14.73
2019-04-13T09:41:54.252Z,15.23
2019-04-13T09:44:31.140Z,17.73
2019-04-13T09:47:03.436Z,15.00
2019-04-13T09:49:34.241Z,15.70
2019-04-13T09:52:04.806Z,13.53
2019-04-13T09:54:35.511Z,17.70
2019-04-13T09:57:06.937Z,16.17
2019-04-13T09:59:37.599Z,22.10
2019-04-13T10:02:08.461Z,15.93
2019-04-13T10:04:38.990Z,19.70
2019-04-13T10:07:09.488Z,17.40
2019-04-13T10:09:42.168Z,16.00
2019-04-13T10:12:34.250Z,13.17
2019-04-13T10:15:18.851Z,16.90
2019-04-13T10:17:54.489Z,19.97
2019-04-13T10:20:26.102Z,16.67
2019-04-13T10:22:56.887Z,21.30
2019-04-13T10:25:27.469Z,13.70
2019-04-13T10:27:58.550Z,13.83
2019-04-13T10:30:29.091Z,14.37
2019-04-13T10:33:01.049Z,16.70
2019-04-13T10:35:31.597Z,17.67
2019-04-13T10:38:02.509Z,17.93
2019-04-13T10:40:33.091Z,14.87
2019-04-13T10:43:04.323Z,14.03
2019-04-13T10:46:06.418Z,16.63
2019-04-13T10:48:58.405Z,16.53
2019-04-13T10:51:48.797Z,13.77
2019-04-13T10:54:19.344Z,14.73
2019-04-13T10:56:49.777Z,15.40
2019-04-13T10:59:20.308Z,12.03
2019-04-13T11:01:50.855Z,14.73
2019-04-13T11:04:21.379Z,16.50
2019-04-13T11:06:52.902Z,15.03
2019-04-13T11:09:28.430Z,13.13
2019-04-13T11:11:55.913Z,13.10
2019-04-13T11:14:26.490Z,12.07
2019-04-13T11:16:58.734Z,11.67
2019-04-13T11:19:29.278Z,9.60
2019-04-13T11:21:59.795Z,12.43
2019-04-13T11:24:30.314Z,12.00
2019-04-13T11:27:00.972Z,14.70
2019-04-13T11:29:31.660Z,9.63
2019-04-13T11:32:02.478Z,15.03
2019-04-13T11:34:33.105Z,12.43
2019-04-13T11:37:05.664Z,13.47
2019-04-13T11:39:40.541Z,12.33
2019-04-13T11:42:25.894Z,12.90
2019-04-13T11:45:15.274Z,12.97
2019-04-13T11:48:19.722Z,13.33
2019-04-13T11:50:52.880Z,19.73
2019-04-13T11:53:23.397Z,12.53
2019-04-13T11:55:53.958Z,14.30
2019-04-13T11:58:24.543Z,10.80
2019-04-13T12:01:16.173Z,14.90
2019-04-13T12:03:57.782Z,14.37
2019-04-13T12:06:46.581Z,16.33
2019-04-13T12:09:34.205Z,16.23
2019-04-13T12:12:12.463Z,13.53
2019-04-13T12:15:00.841Z,17.07
2019-04-13T12:17:52.179Z,9.70
2019-04-13T12:20:44.381Z,16.10
2019-04-13T12:23:16.383Z,11.13
2019-04-13T12:25:46.923Z,13.88
2019-04-13T12:28:17.471Z,12.47
2019-04-13T12:30:47.980Z,9.53
2019-04-13T12:33:20.150Z,10.80
2019-04-13T12:35:50.879Z,11.70
2019-04-13T12:38:21.385Z,11.70
2019-04-13T12:41:01.335Z,10.40
2019-04-13T12:43:31.754Z,9.53
2019-04-13T12:46:02.407Z,7.53
2019-04-13T12:48:32.829Z,12.63
2019-04-13T12:51:03.547Z,13.20
2019-04-13T12:53:34.148Z,10.63
2019-04-13T12:56:04.701Z,11.60
2019-04-13T12:58:35.163Z,13.17
2019-04-13T13:01:24.634Z,13.47
2019-04-13T13:03:55.407Z,15.10
2019-04-13T13:06:25.866Z,11.00
2019-04-13T13:08:56.357Z,10.43
2019-04-13T13:11:26.854Z,10.63
2019-04-13T13:13:57.329Z,14.83
2019-04-13T13:16:27.822Z,12.50
2019-04-13T13:19:00.773Z,14.07
2019-04-13T13:21:30.808Z,15.13
2019-04-13T13:24:01.622Z,12.37
2019-04-13T13:26:32.145Z,15.87
2019-04-13T13:29:02.675Z,19.60
2019-04-13T13:31:33.145Z,17.17
2019-04-13T13:34:03.675Z,13.60
2019-04-13T13:36:34.360Z,17.73
2019-04-13T13:39:06.609Z,12.93
2019-04-13T13:41:37.821Z,12.07
2019-04-13T13:44:08.345Z,13.47
2019-04-13T13:46:40.010Z,12.40
2019-04-13T13:49:13.337Z,13.17
2019-04-13T13:51:55.263Z,15.50
2019-04-13T13:54:16.572Z,14.27
2019-04-13T13:56:47.814Z,14.73
2019-04-13T13:59:19.001Z,13.37
2019-04-13T14:01:59.570Z,12.97
2019-04-13T14:04:30.282Z,13.10
2019-04-13T14:07:01.614Z,15.03
2019-04-13T14:09:32.503Z,13.00
2019-04-13T14:12:03.427Z,18.67
2019-04-13T14:14:33.959Z,13.63
2019-04-13T14:17:04.775Z,10.70
2019-04-13T14:19:35.322Z,14.13
2019-04-13T14:22:06.061Z,12.43
2019-04-13T14:24:36.665Z,12.37
2019-04-13T14:27:07.284Z,11.40
2019-04-13T14:29:37.802Z,10.63
2019-04-13T14:32:08.266Z,11.67
2019-04-13T14:34:39.070Z,13.00
2019-04-13T14:37:09.603Z,14.30
2019-04-13T14:39:40.758Z,14.40
2019-04-13T14:42:12.780Z,12.47
2019-04-13T14:44:43.962Z,15.43
2019-04-13T14:47:15.306Z,11.73
2019-04-13T14:49:48.942Z,14.30
2019-04-13T14:52:19.526Z,14.27
2019-04-13T14:54:50.156Z,15.63
2019-04-13T14:57:20.775Z,13.83
2019-04-13T14:59:51.740Z,10.60
2019-04-13T15:02:22.207Z,13.50
2019-04-13T15:04:52.672Z,12.10
2019-04-13T15:07:23.211Z,15.23
2019-04-13T15:09:53.758Z,15.80
2019-04-13T15:12:24.419Z,13.00
2019-04-13T15:14:54.856Z,12.07
2019-04-13T15:17:34.702Z,9.73
2019-04-13T15:20:10.804Z,13.20
2019-04-13T15:22:36.879Z,21.30
2019-04-13T15:25:08.960Z,14.67
2019-04-13T15:27:46.531Z,13.10
2019-04-13T15:30:15.578Z,11.93
2019-04-13T15:32:47.252Z,9.97
2019-04-13T15:35:19.067Z,11.63
2019-04-13T15:37:54.091Z,10.77
2019-04-13T15:40:28.131Z,12.50
2019-04-13T15:43:03.528Z,9.53
2019-04-13T15:45:33.741Z,15.07
2019-04-13T15:48:05.471Z,11.93
2019-04-13T15:50:36.065Z,10.80
2019-04-13T15:53:07.537Z,10.30
2019-04-13T15:55:40.088Z,12.30
2019-04-13T15:58:10.699Z,13.00
2019-04-13T16:00:41.790Z,23.43
2019-04-13T16:03:12.710Z,16.40
2019-04-13T16:05:43.408Z,25.53
2019-04-13T16:08:14.122Z,15.20
2019-04-13T16:11:16.470Z,11.80
2019-04-13T16:13:47.655Z,12.53
2019-04-13T16:16:18.274Z,19.93
2019-04-13T16:18:49.772Z,13.90
2019-04-13T16:21:21.534Z,15.00
2019-04-13T16:23:52.266Z,13.17
2019-04-13T16:26:23.048Z,13.20
2019-04-13T16:29:27.712Z,14.47
2019-04-13T16:32:23.225Z,18.60
2019-04-13T16:35:16.556Z,15.70
2019-04-13T16:37:50.632Z,14.37
2019-04-13T16:40:22.738Z,18.43
2019-04-13T16:42:57.952Z,12.73
2019-04-13T16:45:52.800Z,15.60
2019-04-13T16:48:46.481Z,19.30
2019-04-13T16:51:41.887Z,12.53
2019-04-13T16:54:23.585Z,13.53
2019-04-13T16:57:13.389Z,17.57
2019-04-13T17:00:14.820Z,12.40
2019-04-13T17:02:56.813Z,14.40
2019-04-13T17:05:29.223Z,14.80
2019-04-13T17:07:59.695Z,12.20
2019-04-13T17:10:31.328Z,12.37
2019-04-13T17:13:03.164Z,16.37
2019-04-13T17:15:34.009Z,13.57
2019-04-13T17:18:06.099Z,12.40
2019-04-13T17:20:50.673Z,16.37
2019-04-13T17:23:37.928Z,12.63
2019-04-13T17:26:31.510Z,15.97
2019-04-13T17:29:13.100Z,17.43
2019-04-13T17:32:02.159Z,14.97
2019-04-13T17:34:44.186Z,14.80
2019-04-13T17:37:17.036Z,11.80
2019-04-13T17:39:48.379Z,14.20
2019-04-13T17:42:46.634Z,18.70
2019-04-13T17:45:33.905Z,12.50
2019-04-13T17:48:33.350Z,13.57
2019-04-13T17:51:22.963Z,16.80
2019-04-13T17:54:01.803Z,14.17
2019-04-13T17:56:32.494Z,16.60
2019-04-13T17:59:25.502Z,13.27
2019-04-13T18:02:14.057Z,15.07
2019-04-13T18:05:11.477Z,15.37
2019-04-13T18:08:01.653Z,21.43
2019-04-13T18:10:54.643Z,14.57
2019-04-13T18:13:50.948Z,16.97
2019-04-13T18:16:40.239Z,19.83
2019-04-13T18:19:16.980Z,19.20
2019-04-13T18:21:47.618Z,18.47
2019-04-13T18:24:18.269Z,15.43
2019-04-13T18:26:49.955Z,14.67
2019-04-13T18:29:21.760Z,15.97
2019-04-13T18:31:52.646Z,15.77
2019-04-13T18:34:26.394Z,18.67
2019-04-13T18:36:56.838Z,16.90
2019-04-13T18:39:27.994Z,16.33
2019-04-13T18:41:59.079Z,18.37
2019-04-13T18:44:30.229Z,19.37
2019-04-13T18:47:01.443Z,18.87
2019-04-13T18:49:32.375Z,18.70
2019-04-13T18:52:03.309Z,17.80
2019-04-13T18:54:34.325Z,14.73
2019-04-13T18:57:05.219Z,14.63
2019-04-13T18:59:35.910Z,18.77
2019-04-13T19:02:08.106Z,25.10
2019-04-13T19:04:38.742Z,18.30
2019-04-13T19:07:09.168Z,20.73
2019-04-13T19:09:39.859Z,24.73
2019-04-13T19:12:10.317Z,21.83
2019-04-13T19:14:41.113Z,21.77
2019-04-13T19:17:11.624Z,25.00
2019-04-13T19:19:42.134Z,29.47
2019-04-13T19:22:12.595Z,25.80
2019-04-13T19:24:43.088Z,24.53
2019-04-13T19:27:13.644Z,27.63
2019-04-13T19:29:44.101Z,30.70
2019-04-13T19:32:14.895Z,21.43
2019-04-13T19:34:45.832Z,24.60
2019-04-13T19:37:18.376Z,23.17
2019-04-13T19:39:48.969Z,21.40
2019-04-13T19:42:19.414Z,20.93
2019-04-13T19:44:50.298Z,21.90
2019-04-13T19:47:21.010Z,21.67
2019-04-13T19:49:51.538Z,22.33
2019-04-13T19:52:31.822Z,21.53
2019-04-13T19:55:02.482Z,19.30
2019-04-13T19:57:32.928Z,21.97
2019-04-13T20:00:04.346Z,19.50
2019-04-13T20:02:34.870Z,27.03
2019-04-13T20:05:05.934Z,22.60
2019-04-13T20:07:36.435Z,24.63
2019-04-13T20:10:07.890Z,26.33
2019-04-13T20:12:38.487Z,24.23
2019-04-13T20:15:09.737Z,23.80
2019-04-13T20:17:40.362Z,24.23
2019-04-13T20:20:11.393Z,21.63
2019-04-13T20:22:42.096Z,24.10
2019-04-13T20:25:13.529Z,24.30
2019-04-13T20:27:45.562Z,21.77
2019-04-13T20:30:17.293Z,32.93
2019-04-13T20:32:49.169Z,28.80
2019-04-13T20:35:20.144Z,23.60
2019-04-13T20:37:51.213Z,31.07
2019-04-13T20:40:38.072Z,23.47
2019-04-13T20:43:09.650Z,26.20
2019-04-13T20:45:40.326Z,28.43
2019-04-13T20:48:11.821Z,24.97
2019-04-13T20:50:43.471Z,26.90
2019-04-13T20:53:14.323Z,27.57
2019-04-13T20:55:45.877Z,25.30
2019-04-13T20:58:16.761Z,21.50
2019-04-13T21:00:47.198Z,27.50
2019-04-13T21:03:18.553Z,29.13
2019-04-13T21:05:49.173Z,29.10
2019-04-13T21:08:19.649Z,25.83
2019-04-13T21:10:50.092Z,24.00
2019-04-13T21:13:20.893Z,26.63
2019-04-13T21:15:51.453Z,28.50
2019-04-13T21:18:23.214Z,28.43
2019-04-13T21:20:53.841Z,26.83
2019-04-13T21:23:25.488Z,30.80
2019-04-13T21:25:56.075Z,31.03
2019-04-13T21:28:27.600Z,31.10
2019-04-13T21:30:58.367Z,30.20
2019-04-13T21:33:30.041Z,25.47
2019-04-13T21:36:00.708Z,24.10
2019-04-13T21:38:32.279Z,37.10
2019-04-13T21:41:04.302Z,29.33
2019-04-13T21:43:36.114Z,34.53
2019-04-13T21:46:07.247Z,28.37
2019-04-13T21:48:37.747Z,30.40
2019-04-13T21:51:26.837Z,30.30
2019-04-13T21:54:14.671Z,39.27
2019-04-13T21:56:45.312Z,29.63
2019-04-13T21:59:15.777Z,35.57
2019-04-13T22:02:00.793Z,32.03
2019-04-13T22:04:32.545Z,27.77
2019-04-13T22:07:04.635Z,29.37
2019-04-13T22:09:35.248Z,29.43
2019-04-13T22:12:06.929Z,34.87
2019-04-13T22:14:46.155Z,36.27
2019-04-13T22:17:09.965Z,32.70
2019-04-13T22:19:40.380Z,33.70
2019-04-13T22:22:11.833Z,35.40
2019-04-13T22:24:44.108Z,32.80
2019-04-13T22:27:15.166Z,33.87
2019-04-13T22:29:50.866Z,29.47
2019-04-13T22:32:38.943Z,33.00
2019-04-13T22:35:34.719Z,38.20
2019-04-13T22:38:06.702Z,36.10
2019-04-13T22:40:37.396Z,41.23
2019-04-13T22:43:08.925Z,34.60
2019-04-13T22:45:40.435Z,32.53
2019-04-13T22:48:20.507Z,35.10
2019-04-13T22:51:14.015Z,42.70
2019-04-13T22:54:03.773Z,34.23
2019-04-13T22:56:44.429Z,38.77
2019-04-13T22:59:16.031Z,33.13
2019-04-13T23:01:54.979Z,37.23
2019-04-13T23:04:26.064Z,35.90
2019-04-13T23:06:57.455Z,37.80
2019-04-13T23:09:28.259Z,36.17
2019-04-13T23:11:58.672Z,38.97
2019-04-13T23:14:29.242Z,38.27
2019-04-13T23:17:00.476Z,36.30
2019-04-13T23:19:31.092Z,32.60
2019-04-13T23:22:01.650Z,37.20
2019-04-13T23:24:33.572Z,36.27
2019-04-13T23:27:05.532Z,38.70
2019-04-13T23:29:36.805Z,30.73
2019-04-13T23:32:07.343Z,35.70
2019-04-13T23:34:38.105Z,34.43
2019-04-13T23:37:10.471Z,33.97
2019-04-13T23:39:41.463Z,40.23
2019-04-13T23:42:13.333Z,39.47
2019-04-13T23:44:44.443Z,37.47
2019-04-13T23:47:16.455Z,36.73
2019-04-13T23:49:47.641Z,36.03
2019-04-13T23:52:18.185Z,41.67
2019-04-13T23:54:52.608Z,36.63
2019-04-13T23:57:48.621Z,36.53
